createdAt,value
2019-03-03T00:01:50.500Z,78.60
2019-03-03T00:04:31.373Z,78.60
2019-03-03T00:07:12.037Z,78.60
2019-03-03T00:09:52.212Z,78.40
2019-03-03T00:12:33.250Z,78.70
2019-03-03T00:15:13.477Z,78.90
2019-03-03T00:17:53.272Z,78.70
2019-03-03T00:20:33.432Z,78.90
2019-03-03T00:23:21.626Z,78.90
2019-03-03T00:26:01.570Z,79.30
2019-03-03T00:28:42.425Z,79.30
2019-03-03T00:31:23.236Z,79.30
2019-03-03T00:34:09.730Z,79.10
2019-03-03T00:37:12.792Z,79.10
2019-03-03T00:40:33.154Z,78.60
2019-03-03T00:46:32.401Z,78.70
2019-03-03T00:52:36.699Z,79.10
2019-03-03T00:58:47.684Z,78.90
2019-03-03T01:01:51.856Z,78.60
2019-03-03T01:04:55.815Z,78.40
2019-03-03T01:08:06.027Z,77.60
2019-03-03T01:11:08.460Z,77.60
2019-03-03T01:17:15.731Z,76.90
2019-03-03T01:20:09.016Z,76.70
2019-03-03T01:22:50.602Z,77.30
2019-03-03T01:25:31.206Z,77.40
2019-03-03T01:28:11.373Z,77.40
2019-03-03T01:30:52.134Z,77.30
2019-03-03T01:33:35.326Z,77.80
2019-03-03T01:36:15.230Z,78.00
2019-03-03T01:38:55.461Z,78.60
2019-03-03T01:41:37.759Z,78.40
2019-03-03T01:44:18.252Z,78.60
2019-03-03T01:46:59.531Z,78.60
2019-03-03T01:49:47.413Z,78.70
2019-03-03T01:52:27.592Z,78.60
2019-03-03T01:55:11.772Z,78.20
2019-03-03T01:57:53.768Z,78.00
2019-03-03T02:00:34.125Z,77.60
2019-03-03T02:03:15.195Z,76.90
2019-03-03T02:08:39.180Z,76.50
2019-03-03T02:11:19.343Z,76.30
2019-03-03T02:14:05.677Z,75.60
2019-03-03T02:16:48.196Z,75.90
2019-03-03T02:19:28.536Z,75.40
2019-03-03T02:22:09.113Z,74.80
2019-03-03T02:24:49.157Z,74.60
2019-03-03T02:27:29.386Z,73.90
2019-03-03T02:30:09.296Z,73.90
2019-03-03T02:32:49.443Z,73.30
2019-03-03T02:35:29.379Z,73.00
2019-03-03T02:38:09.176Z,73.20
2019-03-03T02:40:49.151Z,72.80
2019-03-03T02:43:30.118Z,72.60
2019-03-03T02:46:10.219Z,72.60
2019-03-03T02:48:50.201Z,73.00
2019-03-03T02:51:30.495Z,72.60
2019-03-03T02:54:10.878Z,72.60
2019-03-03T02:56:50.926Z,72.80
2019-03-03T02:59:33.103Z,72.20
2019-03-03T03:05:29.589Z,72.20
2019-03-03T03:08:14.342Z,72.40
2019-03-03T03:17:30.467Z,71.50
2019-03-03T03:20:40.800Z,71.30
2019-03-03T03:23:47.631Z,71.80
2019-03-03T03:33:18.725Z,72.00
2019-03-03T03:36:29.804Z,71.50
2019-03-03T03:39:33.475Z,71.50
2019-03-03T03:42:39.693Z,71.30
2019-03-03T03:49:07.980Z,71.10
2019-03-03T03:52:13.535Z,71.30
2019-03-03T03:55:14.103Z,70.90
2019-03-03T04:01:15.598Z,71.30
2019-03-03T04:08:15.152Z,71.80
2019-03-03T04:14:15.227Z,72.20
2019-03-03T04:20:16.738Z,73.20
2019-03-03T04:23:21.797Z,73.70
2019-03-03T04:26:49.040Z,73.90
2019-03-03T04:29:47.467Z,74.50
2019-03-03T04:32:48.555Z,74.50
2019-03-03T04:35:48.741Z,75.00
2019-03-03T04:42:09.545Z,75.20
2019-03-03T04:45:08.870Z,75.00
2019-03-03T04:48:08.984Z,75.00
2019-03-03T04:51:09.096Z,74.80
2019-03-03T04:54:10.187Z,75.00
2019-03-03T04:57:11.169Z,74.60
2019-03-03T05:06:21.611Z,73.30
2019-03-03T05:09:34.648Z,73.20
2019-03-03T05:12:37.424Z,73.20
2019-03-03T05:15:38.421Z,73.30
2019-03-03T05:18:43.978Z,73.50
2019-03-03T05:21:24.174Z,73.70
2019-03-03T05:24:06.894Z,73.70
2019-03-03T05:26:46.885Z,73.50
2019-03-03T05:29:26.920Z,73.50
2019-03-03T05:32:06.759Z,73.50
2019-03-03T05:34:48.286Z,73.30
2019-03-03T05:37:28.957Z,72.60
2019-03-03T05:40:08.904Z,72.20
2019-03-03T05:42:49.121Z,72.00
2019-03-03T05:45:32.382Z,71.80
2019-03-03T05:48:17.028Z,71.70
2019-03-03T05:50:56.971Z,71.70
2019-03-03T05:53:37.112Z,71.50
2019-03-03T05:56:19.074Z,71.30
2019-03-03T05:58:59.469Z,71.30
2019-03-03T06:01:39.880Z,70.90
2019-03-03T06:04:20.578Z,70.90
2019-03-03T06:07:00.827Z,70.70
2019-03-03T06:09:40.867Z,70.40
2019-03-03T06:12:20.968Z,70.20
2019-03-03T06:15:00.902Z,70.00
2019-03-03T06:17:41.032Z,70.00
2019-03-03T06:20:21.149Z,69.20
2019-03-03T06:23:00.993Z,68.90
2019-03-03T06:25:43.067Z,68.70
2019-03-03T06:28:23.008Z,68.30
2019-03-03T06:31:05.082Z,67.90
2019-03-03T06:33:45.143Z,67.90
2019-03-03T06:36:25.183Z,67.60
2019-03-03T06:39:05.522Z,67.40
2019-03-03T06:41:47.473Z,67.40
2019-03-03T06:44:27.313Z,67.00
2019-03-03T06:47:07.338Z,67.20
2019-03-03T06:49:47.265Z,66.80
2019-03-03T06:52:30.740Z,67.00
2019-03-03T06:55:11.159Z,67.00
2019-03-03T06:57:51.481Z,67.00
2019-03-03T07:00:31.687Z,67.20
2019-03-03T07:03:11.783Z,67.40
2019-03-03T07:05:51.764Z,66.80
2019-03-03T07:08:31.854Z,66.60
2019-03-03T07:11:12.139Z,66.10
2019-03-03T07:13:51.949Z,66.30
2019-03-03T07:16:31.880Z,66.10
2019-03-03T07:19:11.828Z,65.90
2019-03-03T07:21:51.913Z,66.10
2019-03-03T07:24:33.653Z,65.90
2019-03-03T07:27:13.428Z,66.10
2019-03-03T07:29:53.345Z,65.70
2019-03-03T07:32:35.677Z,65.70
2019-03-03T07:35:17.240Z,65.30
2019-03-03T07:37:57.894Z,65.90
2019-03-03T07:40:41.558Z,65.50
2019-03-03T07:43:21.877Z,65.50
2019-03-03T07:46:05.514Z,65.70
2019-03-03T07:48:46.164Z,65.30
2019-03-03T07:51:27.741Z,65.70
2019-03-03T07:54:09.516Z,65.50
2019-03-03T07:56:49.672Z,65.30
2019-03-03T07:59:29.553Z,65.30
2019-03-03T08:02:09.720Z,65.50
2019-03-03T08:04:50.076Z,65.50
2019-03-03T08:07:34.136Z,65.70
2019-03-03T08:10:15.015Z,65.10
2019-03-03T08:12:56.808Z,65.00
2019-03-03T08:15:36.840Z,64.80
2019-03-03T08:18:17.076Z,64.40
2019-03-03T08:20:57.080Z,64.60
2019-03-03T08:23:43.909Z,65.00
2019-03-03T08:29:27.773Z,64.00
2019-03-03T08:32:07.392Z,64.00
2019-03-03T08:34:49.530Z,64.40
2019-03-03T08:37:29.676Z,64.40
2019-03-03T08:40:09.691Z,64.00
2019-03-03T08:43:14.987Z,64.40
2019-03-03T08:45:55.551Z,64.60
2019-03-03T08:49:04.134Z,63.80
2019-03-03T08:55:00.297Z,64.60
2019-03-03T08:58:01.481Z,65.10
2019-03-03T09:04:08.008Z,65.30
2019-03-03T09:07:08.065Z,65.30
2019-03-03T09:16:15.898Z,64.60
2019-03-03T09:19:21.710Z,64.20
2019-03-03T09:22:12.362Z,64.00
2019-03-03T09:24:59.263Z,64.20
2019-03-03T09:27:58.992Z,63.50
2019-03-03T09:31:01.518Z,63.30
2019-03-03T09:34:02.862Z,63.80
2019-03-03T09:37:05.088Z,63.70
2019-03-03T09:40:09.363Z,63.50
2019-03-03T09:43:20.884Z,62.90
2019-03-03T09:46:20.880Z,62.90
2019-03-03T09:49:11.736Z,63.10
2019-03-03T09:52:17.235Z,62.00
2019-03-03T09:55:30.717Z,61.80
2019-03-03T10:01:18.387Z,61.20
2019-03-03T10:04:21.153Z,61.80
2019-03-03T10:10:28.504Z,61.20
2019-03-03T10:13:31.430Z,61.00
2019-03-03T10:16:51.258Z,60.50
2019-03-03T10:19:51.529Z,59.60
2019-03-03T10:22:40.789Z,59.80
2019-03-03T10:25:42.038Z,60.30
2019-03-03T10:28:42.102Z,58.90
2019-03-03T10:31:43.063Z,58.70
2019-03-03T10:34:38.599Z,57.70
2019-03-03T10:37:30.811Z,57.40
2019-03-03T10:40:21.178Z,56.70
2019-03-03T10:43:21.775Z,56.10
2019-03-03T10:46:24.999Z,56.00
2019-03-03T10:49:27.010Z,55.50
2019-03-03T10:54:14.388Z,56.10
2019-03-03T10:57:07.965Z,56.30
2019-03-03T10:59:55.781Z,55.50
2019-03-03T11:02:40.699Z,56.00
2019-03-03T11:05:28.695Z,56.00
2019-03-03T11:08:25.050Z,55.70
2019-03-03T11:11:11.136Z,55.40
2019-03-03T11:13:56.395Z,54.30
2019-03-03T11:16:45.612Z,54.50
2019-03-03T11:19:35.975Z,54.50
2019-03-03T11:22:35.487Z,55.10
2019-03-03T11:25:26.086Z,54.30
2019-03-03T11:28:23.382Z,54.50
2019-03-03T11:30:53.982Z,54.30
2019-03-03T11:33:47.417Z,54.50
2019-03-03T11:36:36.462Z,54.50
2019-03-03T11:39:25.906Z,53.70
2019-03-03T11:42:10.702Z,54.00
2019-03-03T11:44:55.047Z,53.90
2019-03-03T11:47:30.613Z,53.50
2019-03-03T11:50:33.108Z,53.50
2019-03-03T11:53:24.211Z,52.90
2019-03-03T11:56:02.279Z,52.00
2019-03-03T11:58:42.418Z,52.30
2019-03-03T12:01:44.824Z,50.70
2019-03-03T12:04:50.190Z,50.20
2019-03-03T12:07:39.701Z,50.70
2019-03-03T12:10:23.114Z,49.90
2019-03-03T12:13:10.815Z,50.00
2019-03-03T12:15:48.854Z,50.30
2019-03-03T12:18:34.843Z,50.20
2019-03-03T12:21:21.364Z,49.60
2019-03-03T12:24:08.714Z,49.60
2019-03-03T12:26:56.020Z,50.70
2019-03-03T12:29:46.331Z,51.30
2019-03-03T12:32:45.520Z,51.60
2019-03-03T12:35:35.284Z,51.30
2019-03-03T12:38:12.292Z,50.50
2019-03-03T12:40:56.304Z,50.30
2019-03-03T12:43:55.392Z,50.80
2019-03-03T12:46:40.896Z,51.10
2019-03-03T12:49:43.375Z,50.30
2019-03-03T12:52:24.747Z,50.30
2019-03-03T12:55:10.735Z,50.70
2019-03-03T12:57:57.046Z,51.00
2019-03-03T13:00:46.818Z,50.80
2019-03-03T13:03:44.084Z,49.70
2019-03-03T13:06:26.088Z,49.00
2019-03-03T13:09:12.160Z,48.80
2019-03-03T13:12:02.343Z,47.60
2019-03-03T13:14:52.556Z,47.90
2019-03-03T13:17:51.660Z,48.20
2019-03-03T13:20:35.927Z,47.60
2019-03-03T13:23:18.302Z,48.40
2019-03-03T13:26:11.532Z,48.40
2019-03-03T13:28:45.480Z,48.70
2019-03-03T13:31:50.994Z,49.10
2019-03-03T13:34:53.504Z,49.10
2019-03-03T13:37:52.730Z,50.20
2019-03-03T13:40:36.220Z,50.00
2019-03-03T13:43:04.156Z,50.80
2019-03-03T13:45:33.415Z,50.50
2019-03-03T13:48:01.889Z,50.30
2019-03-03T13:50:29.845Z,50.50
2019-03-03T13:52:57.717Z,51.10
2019-03-03T13:55:25.495Z,51.30
2019-03-03T13:57:53.304Z,50.70
2019-03-03T14:00:21.534Z,51.40
2019-03-03T14:02:49.271Z,50.80
2019-03-03T14:05:18.410Z,51.30
2019-03-03T14:07:46.682Z,51.40
2019-03-03T14:10:15.888Z,51.40
2019-03-03T14:12:43.736Z,51.40
2019-03-03T14:15:11.813Z,51.90
2019-03-03T14:17:39.768Z,52.00
2019-03-03T14:20:12.080Z,52.60
2019-03-03T14:22:39.723Z,52.90
2019-03-03T14:25:07.613Z,53.10
2019-03-03T14:27:35.461Z,52.90
2019-03-03T14:30:03.958Z,52.80
2019-03-03T14:32:33.317Z,53.10
2019-03-03T14:35:01.040Z,53.10
2019-03-03T14:37:28.860Z,52.30
2019-03-03T14:39:56.979Z,52.90
2019-03-03T14:42:25.237Z,52.00
2019-03-03T14:44:53.141Z,51.70
2019-03-03T14:47:20.929Z,51.30
2019-03-03T14:49:48.733Z,50.50
2019-03-03T14:52:16.537Z,50.70
2019-03-03T14:54:44.361Z,50.80
2019-03-03T14:57:12.202Z,51.40
2019-03-03T14:59:39.915Z,51.60
2019-03-03T15:02:07.838Z,51.70
2019-03-03T15:04:35.616Z,51.60
2019-03-03T15:07:03.671Z,51.10
2019-03-03T15:09:31.555Z,51.60
2019-03-03T15:11:59.327Z,51.30
2019-03-03T15:14:27.009Z,51.10
2019-03-03T15:16:54.727Z,51.00
2019-03-03T15:19:22.567Z,50.30
2019-03-03T15:21:51.127Z,49.90
2019-03-03T15:24:19.024Z,50.20
2019-03-03T15:26:46.912Z,49.10
2019-03-03T15:29:14.560Z,49.40
2019-03-03T15:31:42.357Z,49.10
2019-03-03T15:34:10.494Z,48.80
2019-03-03T15:36:40.410Z,48.70
2019-03-03T15:39:08.956Z,48.80
2019-03-03T15:41:44.432Z,48.50
2019-03-03T15:44:17.485Z,48.20
2019-03-03T15:46:57.964Z,48.50
2019-03-03T15:49:39.076Z,48.70
2019-03-03T15:52:08.781Z,49.00
2019-03-03T15:55:13.225Z,49.60
2019-03-03T15:57:42.368Z,49.30
2019-03-03T16:00:14.437Z,49.60
2019-03-03T16:02:42.406Z,50.20
2019-03-03T16:05:11.604Z,50.00
2019-03-03T16:07:39.352Z,50.30
2019-03-03T16:10:08.426Z,50.20
2019-03-03T16:12:36.059Z,50.30
2019-03-03T16:15:04.934Z,50.50
2019-03-03T16:17:32.636Z,50.80
2019-03-03T16:20:00.349Z,51.00
2019-03-03T16:22:28.097Z,50.70
2019-03-03T16:24:56.887Z,50.50
2019-03-03T16:27:24.664Z,50.80
2019-03-03T16:29:52.620Z,50.20
2019-03-03T16:32:22.378Z,50.20
2019-03-03T16:34:49.971Z,50.30
2019-03-03T16:37:17.728Z,50.50
2019-03-03T16:39:45.321Z,51.00
2019-03-03T16:42:13.778Z,51.40
2019-03-03T16:44:41.463Z,51.90
2019-03-03T16:47:09.229Z,52.20
2019-03-03T16:49:36.988Z,52.50
2019-03-03T16:52:04.776Z,52.80
2019-03-03T16:54:32.658Z,52.80
2019-03-03T16:57:00.419Z,53.20
2019-03-03T16:59:28.360Z,53.40
2019-03-03T17:01:56.123Z,53.50
2019-03-03T17:04:23.769Z,53.90
2019-03-03T17:06:54.125Z,54.20
2019-03-03T17:09:21.711Z,54.00
2019-03-03T17:11:49.272Z,54.30
2019-03-03T17:14:16.865Z,54.50
2019-03-03T17:16:45.657Z,54.90
2019-03-03T17:19:13.213Z,55.10
2019-03-03T17:21:40.874Z,55.40
2019-03-03T17:24:08.699Z,55.40
2019-03-03T17:26:36.274Z,55.50
2019-03-03T17:29:03.880Z,55.70
2019-03-03T17:31:31.632Z,56.00
2019-03-03T17:33:59.403Z,55.70
2019-03-03T17:36:26.998Z,55.50
2019-03-03T17:38:54.624Z,55.70
2019-03-03T17:41:22.193Z,55.50
2019-03-03T17:43:49.822Z,56.10
2019-03-03T17:46:17.440Z,55.20
2019-03-03T17:48:45.149Z,55.10
2019-03-03T17:51:12.609Z,55.70
2019-03-03T17:53:40.497Z,56.10
2019-03-03T17:56:08.226Z,56.30
2019-03-03T17:58:35.866Z,56.60
2019-03-03T18:01:03.715Z,56.70
2019-03-03T18:03:31.360Z,57.20
2019-03-03T18:05:58.937Z,57.00
2019-03-03T18:08:26.633Z,57.00
2019-03-03T18:10:54.164Z,56.60
2019-03-03T18:13:21.689Z,56.00
2019-03-03T18:15:49.289Z,56.40
2019-03-03T18:18:16.983Z,56.70
2019-03-03T18:20:44.982Z,56.70
2019-03-03T18:23:12.676Z,56.70
2019-03-03T18:25:40.347Z,56.70
2019-03-03T18:28:08.001Z,56.60
2019-03-03T18:30:35.559Z,56.70
2019-03-03T18:33:03.235Z,56.90
2019-03-03T18:35:30.913Z,57.40
2019-03-03T18:37:58.560Z,57.70
2019-03-03T18:40:26.440Z,58.00
2019-03-03T18:42:54.324Z,57.80
2019-03-03T18:45:22.538Z,57.80
2019-03-03T18:47:55.529Z,58.00
2019-03-03T18:50:24.080Z,57.80
2019-03-03T18:52:52.974Z,58.40
2019-03-03T18:55:20.746Z,58.40
2019-03-03T18:57:48.575Z,58.30
2019-03-03T19:00:19.669Z,58.70
2019-03-03T19:02:59.070Z,58.60
2019-03-03T19:05:27.761Z,58.60
2019-03-03T19:07:55.810Z,58.60
2019-03-03T19:10:25.176Z,58.60
2019-03-03T19:12:53.166Z,58.60
2019-03-03T19:15:20.804Z,58.70
2019-03-03T19:17:48.530Z,58.70
2019-03-03T19:20:17.360Z,58.70
2019-03-03T19:22:45.263Z,58.70
2019-03-03T19:25:13.235Z,58.90
2019-03-03T19:27:41.019Z,59.30
2019-03-03T19:30:16.924Z,59.60
2019-03-03T19:32:45.145Z,59.30
2019-03-03T19:35:12.866Z,58.90
2019-03-03T19:37:41.134Z,59.00
2019-03-03T19:40:09.345Z,58.90
2019-03-03T19:42:37.062Z,58.40
2019-03-03T19:45:13.258Z,58.00
2019-03-03T19:47:40.986Z,58.10
2019-03-03T19:50:09.947Z,58.10
2019-03-03T19:52:37.753Z,57.70
2019-03-03T19:55:06.606Z,57.40
2019-03-03T19:57:34.522Z,57.50
2019-03-03T20:00:02.585Z,57.50
2019-03-03T20:02:30.548Z,57.40
2019-03-03T20:04:59.195Z,57.50
2019-03-03T20:07:27.043Z,57.80
2019-03-03T20:09:54.894Z,58.00
2019-03-03T20:12:22.699Z,58.10
2019-03-03T20:14:50.567Z,58.30
2019-03-03T20:17:18.369Z,58.30
2019-03-03T20:19:46.082Z,58.40
2019-03-03T20:22:14.014Z,58.30
2019-03-03T20:24:41.537Z,58.10
2019-03-03T20:27:09.082Z,57.50
2019-03-03T20:29:36.720Z,57.40
2019-03-03T20:32:04.562Z,57.40
2019-03-03T20:34:32.378Z,57.40
2019-03-03T20:37:00.214Z,57.00
2019-03-03T20:39:28.108Z,57.20
2019-03-03T20:41:55.750Z,57.00
2019-03-03T20:44:23.537Z,56.90
2019-03-03T20:46:51.136Z,56.60
2019-03-03T20:49:18.745Z,56.70
2019-03-03T20:51:46.508Z,56.90
2019-03-03T20:54:14.158Z,56.60
2019-03-03T20:56:42.008Z,56.40
2019-03-03T20:59:09.714Z,56.60
2019-03-03T21:01:37.468Z,56.60
2019-03-03T21:04:05.120Z,56.60
2019-03-03T21:06:32.947Z,56.90
2019-03-03T21:09:00.919Z,56.40
2019-03-03T21:11:28.574Z,56.60
2019-03-03T21:13:56.195Z,56.60
2019-03-03T21:16:23.927Z,56.40
2019-03-03T21:18:51.939Z,56.30
2019-03-03T21:21:19.532Z,56.40
2019-03-03T21:23:47.016Z,56.40
2019-03-03T21:26:15.874Z,56.60
2019-03-03T21:28:43.649Z,57.00
2019-03-03T21:31:11.442Z,57.00
2019-03-03T21:33:39.238Z,57.00
2019-03-03T21:36:06.960Z,57.50
2019-03-03T21:38:34.562Z,58.40
2019-03-03T21:41:02.189Z,58.90
2019-03-03T21:43:29.732Z,59.60
2019-03-03T21:45:57.393Z,60.10
2019-03-03T21:48:24.906Z,60.90
2019-03-03T21:50:52.562Z,61.00
2019-03-03T21:53:20.187Z,61.40
2019-03-03T21:55:47.704Z,61.40
2019-03-03T21:58:15.259Z,61.40
2019-03-03T22:00:42.794Z,61.80
2019-03-03T22:03:10.276Z,62.20
2019-03-03T22:05:45.981Z,61.80
2019-03-03T22:08:14.719Z,62.30
2019-03-03T22:10:42.266Z,61.80
2019-03-03T22:13:11.418Z,61.60
2019-03-03T22:15:39.082Z,60.50
2019-03-03T22:18:06.645Z,60.10
2019-03-03T22:20:34.323Z,60.10
2019-03-03T22:23:01.883Z,59.50
2019-03-03T22:25:29.370Z,58.70
2019-03-03T22:27:56.987Z,58.10
2019-03-03T22:30:29.177Z,58.10
2019-03-03T22:32:57.782Z,57.80
2019-03-03T22:35:25.563Z,58.30
2019-03-03T22:37:53.319Z,58.00
2019-03-03T22:40:21.079Z,57.50
2019-03-03T22:42:51.280Z,57.80
2019-03-03T22:45:22.719Z,58.30
2019-03-03T22:47:51.321Z,58.40
2019-03-03T22:50:19.359Z,58.70
2019-03-03T22:52:47.533Z,58.40
2019-03-03T22:55:16.569Z,59.20
2019-03-03T22:57:44.569Z,59.00
2019-03-03T23:00:44.216Z,58.00
2019-03-03T23:03:20.009Z,58.90
2019-03-03T23:06:15.059Z,59.20
2019-03-03T23:09:17.444Z,59.80
2019-03-03T23:12:36.193Z,60.50
2019-03-03T23:15:36.391Z,59.90
2019-03-03T23:18:19.709Z,60.70
2019-03-03T23:21:10.509Z,60.50
2019-03-03T23:24:06.862Z,61.60
2019-03-03T23:26:35.206Z,61.80
2019-03-03T23:29:02.813Z,62.20
2019-03-03T23:31:30.263Z,62.70
2019-03-03T23:33:58.516Z,63.10
2019-03-03T23:36:26.835Z,63.10
2019-03-03T23:38:55.136Z,64.20
2019-03-03T23:41:24.105Z,64.20
2019-03-03T23:43:52.337Z,64.40
2019-03-03T23:46:21.922Z,64.80
2019-03-03T23:48:50.342Z,64.80
2019-03-03T23:51:18.704Z,64.60
2019-03-03T23:53:46.436Z,65.00
2019-03-03T23:56:14.445Z,64.60
2019-03-03T23:58:43.042Z,64.80
